sensor_id;sensor_type;location;lat;lon;timestamp;P1;durP1;ratioP1;P2;durP2;ratioP2
70829;SDS011;58451;51.550;7.208;2024-02-26T00:00:09;6.40;;;1.50;;
70829;SDS011;58451;51.550;7.208;2024-02-26T00:01:42;4.80;;;1.60;;
70829;SDS011;58451;51.550;7.208;2024-02-26T00:03:17;4.90;;;1.50;;
70829;SDS011;58451;51.550;7.208;2024-02-26T00:04:49;5.50;;;1.60;;
70829;SDS011;58451;51.550;7.208;2024-02-26T00:06:21;5.60;;;1.30;;
70829;SDS011;58451;51.550;7.208;2024-02-26T00:07:53;3.80;;;1.10;;
70829;SDS011;58451;51.550;7.208;2024-02-26T00:09:25;4.20;;;1.20;;
70829;SDS011;58451;51.550;7.208;2024-02-26T00:10:57;5.50;;;1.50;;
70829;SDS011;58451;51.550;7.208;2024-02-26T00:12:29;4.60;;;1.30;;
70829;SDS011;58451;51.550;7.208;2024-02-26T00:14:01;4.10;;;1.30;;
70829;SDS011;58451;51.550;7.208;2024-02-26T00:15:34;5.20;;;1.40;;
70829;SDS011;58451;51.550;7.208;2024-02-26T00:17:06;6.10;;;1.40;;
70829;SDS011;58451;51.550;7.208;2024-02-26T00:18:38;6.30;;;1.40;;
70829;SDS011;58451;51.550;7.208;2024-02-26T00:20:11;5.00;;;1.40;;
70829;SDS011;58451;51.550;7.208;2024-02-26T00:21:43;7.90;;;1.60;;
70829;SDS011;58451;51.550;7.208;2024-02-26T00:23:15;4.50;;;1.30;;
70829;SDS011;58451;51.550;7.208;2024-02-26T00:24:47;5.70;;;1.60;;
70829;SDS011;58451;51.550;7.208;2024-02-26T00:26:19;4.40;;;1.40;;
70829;SDS011;58451;51.550;7.208;2024-02-26T00:27:51;6.60;;;1.50;;
70829;SDS011;58451;51.550;7.208;2024-02-26T00:29:23;4.80;;;1.40;;
70829;SDS011;58451;51.550;7.208;2024-02-26T00:30:55;6.40;;;1.60;;
70829;SDS011;58451;51.550;7.208;2024-02-26T00:32:27;4.60;;;1.40;;
70829;SDS011;58451;51.550;7.208;2024-02-26T00:34:00;4.40;;;1.30;;
70829;SDS011;58451;51.550;7.208;2024-02-26T00:35:32;5.40;;;1.40;;
70829;SDS011;58451;51.550;7.208;2024-02-26T00:37:04;5.40;;;1.20;;
70829;SDS011;58451;51.550;7.208;2024-02-26T00:38:36;5.30;;;1.40;;
70829;SDS011;58451;51.550;7.208;2024-02-26T00:40:08;4.10;;;1.40;;
70829;SDS011;58451;51.550;7.208;2024-02-26T00:41:41;4.40;;;1.30;;
70829;SDS011;58451;51.550;7.208;2024-02-26T00:43:13;5.30;;;1.50;;
70829;SDS011;58451;51.550;7.208;2024-02-26T00:44:44;3.60;;;1.10;;
70829;SDS011;58451;51.550;7.208;2024-02-26T00:46:16;4.20;;;1.40;;
70829;SDS011;58451;51.550;7.208;2024-02-26T00:47:48;3.60;;;1.10;;
70829;SDS011;58451;51.550;7.208;2024-02-26T00:49:21;4.70;;;1.30;;
70829;SDS011;58451;51.550;7.208;2024-02-26T00:50:53;4.00;;;1.30;;
70829;SDS011;58451;51.550;7.208;2024-02-26T00:52:25;3.60;;;1.20;;
70829;SDS011;58451;51.550;7.208;2024-02-26T00:53:57;4.90;;;1.30;;
70829;SDS011;58451;51.550;7.208;2024-02-26T00:55:30;5.30;;;1.50;;
70829;SDS011;58451;51.550;7.208;2024-02-26T00:57:02;3.60;;;1.20;;
70829;SDS011;58451;51.550;7.208;2024-02-26T00:58:34;3.80;;;1.40;;
70829;SDS011;58451;51.550;7.208;2024-02-26T01:00:07;5.50;;;1.50;;
70829;SDS011;58451;51.550;7.208;2024-02-26T01:01:40;5.90;;;1.50;;
70829;SDS011;58451;51.550;7.208;2024-02-26T01:03:12;4.30;;;1.20;;
70829;SDS011;58451;51.550;7.208;2024-02-26T01:04:44;5.80;;;1.50;;
70829;SDS011;58451;51.550;7.208;2024-02-26T01:06:16;4.50;;;1.20;;
70829;SDS011;58451;51.550;7.208;2024-02-26T01:07:48;5.70;;;1.40;;
70829;SDS011;58451;51.550;7.208;2024-02-26T01:09:20;4.70;;;1.40;;
70829;SDS011;58451;51.550;7.208;2024-02-26T01:10:52;4.70;;;1.30;;
70829;SDS011;58451;51.550;7.208;2024-02-26T01:12:24;4.60;;;1.40;;
70829;SDS011;58451;51.550;7.208;2024-02-26T01:13:56;4.70;;;1.30;;
70829;SDS011;58451;51.550;7.208;2024-02-26T01:15:29;4.40;;;1.30;;
70829;SDS011;58451;51.550;7.208;2024-02-26T01:17:01;4.30;;;1.10;;
70829;SDS011;58451;51.550;7.208;2024-02-26T01:18:33;4.10;;;1.30;;
70829;SDS011;58451;51.550;7.208;2024-02-26T01:20:06;4.50;;;1.30;;
70829;SDS011;58451;51.550;7.208;2024-02-26T01:21:40;4.30;;;1.40;;
70829;SDS011;58451;51.550;7.208;2024-02-26T01:23:12;4.70;;;1.30;;
70829;SDS011;58451;51.550;7.208;2024-02-26T01:24:44;4.40;;;1.20;;
70829;SDS011;58451;51.550;7.208;2024-02-26T01:26:16;5.90;;;1.10;;
70829;SDS011;58451;51.550;7.208;2024-02-26T01:27:48;5.00;;;1.30;;
70829;SDS011;58451;51.550;7.208;2024-02-26T01:29:20;3.90;;;1.10;;
70829;SDS011;58451;51.550;7.208;2024-02-26T01:30:52;3.80;;;1.20;;
70829;SDS011;58451;51.550;7.208;2024-02-26T01:32:24;5.00;;;1.10;;
70829;SDS011;58451;51.550;7.208;2024-02-26T01:33:56;3.80;;;1.20;;
70829;SDS011;58451;51.550;7.208;2024-02-26T01:35:28;3.50;;;1.10;;
70829;SDS011;58451;51.550;7.208;2024-02-26T01:37:00;5.30;;;1.30;;
70829;SDS011;58451;51.550;7.208;2024-02-26T01:38:32;4.70;;;1.20;;
70829;SDS011;58451;51.550;7.208;2024-02-26T01:40:05;4.00;;;1.20;;
70829;SDS011;58451;51.550;7.208;2024-02-26T01:41:40;4.50;;;1.10;;
70829;SDS011;58451;51.550;7.208;2024-02-26T01:43:12;4.90;;;1.30;;
70829;SDS011;58451;51.550;7.208;2024-02-26T01:44:44;3.80;;;1.20;;
70829;SDS011;58451;51.550;7.208;2024-02-26T01:46:16;3.80;;;1.30;;
70829;SDS011;58451;51.550;7.208;2024-02-26T01:47:52;4.80;;;1.30;;
70829;SDS011;58451;51.550;7.208;2024-02-26T01:49:26;5.20;;;1.10;;
70829;SDS011;58451;51.550;7.208;2024-02-26T01:50:58;4.40;;;1.30;;
70829;SDS011;58451;51.550;7.208;2024-02-26T01:52:30;3.40;;;1.00;;
70829;SDS011;58451;51.550;7.208;2024-02-26T01:54:03;3.40;;;1.00;;
70829;SDS011;58451;51.550;7.208;2024-02-26T01:55:35;4.60;;;1.20;;
70829;SDS011;58451;51.550;7.208;2024-02-26T01:57:12;3.50;;;1.10;;
70829;SDS011;58451;51.550;7.208;2024-02-26T01:58:45;3.60;;;1.10;;
70829;SDS011;58451;51.550;7.208;2024-02-26T02:00:18;3.90;;;1.30;;
70829;SDS011;58451;51.550;7.208;2024-02-26T02:01:55;5.10;;;1.30;;
70829;SDS011;58451;51.550;7.208;2024-02-26T02:03:30;5.50;;;1.30;;
70829;SDS011;58451;51.550;7.208;2024-02-26T02:05:03;3.90;;;1.20;;
70829;SDS011;58451;51.550;7.208;2024-02-26T02:06:37;4.50;;;1.10;;
70829;SDS011;58451;51.550;7.208;2024-02-26T02:08:10;3.50;;;1.10;;
70829;SDS011;58451;51.550;7.208;2024-02-26T02:09:43;3.60;;;1.10;;
70829;SDS011;58451;51.550;7.208;2024-02-26T02:11:16;3.80;;;1.00;;
70829;SDS011;58451;51.550;7.208;2024-02-26T02:12:49;3.40;;;1.10;;
70829;SDS011;58451;51.550;7.208;2024-02-26T02:14:21;4.40;;;1.30;;
70829;SDS011;58451;51.550;7.208;2024-02-26T02:15:52;3.90;;;1.00;;
70829;SDS011;58451;51.550;7.208;2024-02-26T02:17:24;5.20;;;1.20;;
70829;SDS011;58451;51.550;7.208;2024-02-26T02:18:58;6.30;;;1.10;;
70829;SDS011;58451;51.550;7.208;2024-02-26T02:20:33;5.00;;;1.30;;
70829;SDS011;58451;51.550;7.208;2024-02-26T02:22:06;4.60;;;1.20;;
70829;SDS011;58451;51.550;7.208;2024-02-26T02:23:38;3.50;;;1.10;;
70829;SDS011;58451;51.550;7.208;2024-02-26T02:25:10;3.10;;;0.90;;
70829;SDS011;58451;51.550;7.208;2024-02-26T02:26:42;3.90;;;1.20;;
70829;SDS011;58451;51.550;7.208;2024-02-26T02:28:14;5.20;;;1.10;;
70829;SDS011;58451;51.550;7.208;2024-02-26T02:29:46;4.20;;;1.30;;
70829;SDS011;58451;51.550;7.208;2024-02-26T02:31:20;3.90;;;1.10;;
70829;SDS011;58451;51.550;7.208;2024-02-26T02:32:52;3.70;;;1.10;;
70829;SDS011;58451;51.550;7.208;2024-02-26T02:34:25;3.90;;;0.90;;
70829;SDS011;58451;51.550;7.208;2024-02-26T02:35:57;3.60;;;0.80;;
70829;SDS011;58451;51.550;7.208;2024-02-26T02:37:29;4.40;;;1.00;;
70829;SDS011;58451;51.550;7.208;2024-02-26T02:39:01;4.20;;;1.10;;
70829;SDS011;58451;51.550;7.208;2024-02-26T02:40:33;3.50;;;1.20;;
70829;SDS011;58451;51.550;7.208;2024-02-26T02:42:05;3.70;;;1.10;;
70829;SDS011;58451;51.550;7.208;2024-02-26T02:43:37;4.90;;;0.90;;
70829;SDS011;58451;51.550;7.208;2024-02-26T02:45:09;4.20;;;1.10;;
70829;SDS011;58451;51.550;7.208;2024-02-26T02:46:41;3.80;;;1.00;;
70829;SDS011;58451;51.550;7.208;2024-02-26T02:48:13;4.60;;;1.20;;
70829;SDS011;58451;51.550;7.208;2024-02-26T02:49:45;3.20;;;1.10;;
70829;SDS011;58451;51.550;7.208;2024-02-26T02:51:17;3.00;;;1.10;;
70829;SDS011;58451;51.550;7.208;2024-02-26T02:52:49;3.70;;;1.00;;
70829;SDS011;58451;51.550;7.208;2024-02-26T02:54:21;3.50;;;0.90;;
70829;SDS011;58451;51.550;7.208;2024-02-26T02:55:53;4.80;;;1.10;;
70829;SDS011;58451;51.550;7.208;2024-02-26T02:57:25;3.40;;;0.90;;
70829;SDS011;58451;51.550;7.208;2024-02-26T02:58:57;3.70;;;0.90;;
70829;SDS011;58451;51.550;7.208;2024-02-26T03:00:29;4.50;;;1.30;;
70829;SDS011;58451;51.550;7.208;2024-02-26T03:02:01;5.10;;;1.20;;
70829;SDS011;58451;51.550;7.208;2024-02-26T03:03:33;2.90;;;0.90;;
70829;SDS011;58451;51.550;7.208;2024-02-26T03:05:05;3.10;;;0.90;;
70829;SDS011;58451;51.550;7.208;2024-02-26T03:06:37;3.10;;;0.90;;
70829;SDS011;58451;51.550;7.208;2024-02-26T03:08:10;3.40;;;0.90;;
70829;SDS011;58451;51.550;7.208;2024-02-26T03:09:41;4.40;;;0.80;;
70829;SDS011;58451;51.550;7.208;2024-02-26T03:11:14;2.90;;;0.80;;
70829;SDS011;58451;51.550;7.208;2024-02-26T03:12:47;3.90;;;0.90;;
70829;SDS011;58451;51.550;7.208;2024-02-26T03:14:18;4.90;;;1.20;;
70829;SDS011;58451;51.550;7.208;2024-02-26T03:15:50;3.60;;;1.00;;
70829;SDS011;58451;51.550;7.208;2024-02-26T03:17:22;3.30;;;1.00;;
70829;SDS011;58451;51.550;7.208;2024-02-26T03:18:56;3.60;;;0.90;;
70829;SDS011;58451;51.550;7.208;2024-02-26T03:20:28;3.20;;;0.90;;
70829;SDS011;58451;51.550;7.208;2024-02-26T03:22:00;3.20;;;1.10;;
70829;SDS011;58451;51.550;7.208;2024-02-26T03:23:31;5.80;;;1.40;;
70829;SDS011;58451;51.550;7.208;2024-02-26T03:25:08;3.60;;;0.90;;
70829;SDS011;58451;51.550;7.208;2024-02-26T03:26:40;4.70;;;1.20;;
70829;SDS011;58451;51.550;7.208;2024-02-26T03:28:11;4.20;;;1.00;;
70829;SDS011;58451;51.550;7.208;2024-02-26T03:29:44;3.90;;;0.90;;
70829;SDS011;58451;51.550;7.208;2024-02-26T03:31:16;4.60;;;1.10;;
70829;SDS011;58451;51.550;7.208;2024-02-26T03:32:48;3.40;;;1.00;;
70829;SDS011;58451;51.550;7.208;2024-02-26T03:34:20;3.40;;;1.00;;
70829;SDS011;58451;51.550;7.208;2024-02-26T03:35:52;2.90;;;1.00;;
70829;SDS011;58451;51.550;7.208;2024-02-26T03:37:24;4.80;;;1.30;;
70829;SDS011;58451;51.550;7.208;2024-02-26T03:38:56;3.70;;;1.00;;
70829;SDS011;58451;51.550;7.208;2024-02-26T03:40:28;3.80;;;0.90;;
70829;SDS011;58451;51.550;7.208;2024-02-26T03:42:00;4.40;;;0.90;;
70829;SDS011;58451;51.550;7.208;2024-02-26T03:43:32;4.00;;;1.10;;
70829;SDS011;58451;51.550;7.208;2024-02-26T03:45:04;4.40;;;1.00;;
70829;SDS011;58451;51.550;7.208;2024-02-26T03:46:37;5.10;;;1.10;;
70829;SDS011;58451;51.550;7.208;2024-02-26T03:48:08;5.30;;;1.40;;
70829;SDS011;58451;51.550;7.208;2024-02-26T03:49:40;3.80;;;1.00;;
70829;SDS011;58451;51.550;7.208;2024-02-26T03:51:13;4.20;;;1.10;;
70829;SDS011;58451;51.550;7.208;2024-02-26T03:52:44;3.60;;;1.00;;
70829;SDS011;58451;51.550;7.208;2024-02-26T03:54:16;4.30;;;0.90;;
70829;SDS011;58451;51.550;7.208;2024-02-26T03:55:48;3.50;;;0.90;;
70829;SDS011;58451;51.550;7.208;2024-02-26T03:57:20;3.00;;;0.90;;
70829;SDS011;58451;51.550;7.208;2024-02-26T03:58:53;3.40;;;0.80;;
70829;SDS011;58451;51.550;7.208;2024-02-26T04:00:25;2.90;;;0.80;;
70829;SDS011;58451;51.550;7.208;2024-02-26T04:01:58;2.30;;;0.60;;
70829;SDS011;58451;51.550;7.208;2024-02-26T04:03:33;6.00;;;0.80;;
70829;SDS011;58451;51.550;7.208;2024-02-26T04:05:09;3.90;;;0.80;;
70829;SDS011;58451;51.550;7.208;2024-02-26T04:06:46;2.30;;;0.70;;
70829;SDS011;58451;51.550;7.208;2024-02-26T04:08:18;3.40;;;1.00;;
70829;SDS011;58451;51.550;7.208;2024-02-26T04:09:50;3.60;;;0.90;;
70829;SDS011;58451;51.550;7.208;2024-02-26T04:11:21;3.60;;;0.90;;
70829;SDS011;58451;51.550;7.208;2024-02-26T04:12:53;3.40;;;0.80;;
70829;SDS011;58451;51.550;7.208;2024-02-26T04:14:25;3.80;;;0.90;;
70829;SDS011;58451;51.550;7.208;2024-02-26T04:15:57;5.30;;;0.90;;
70829;SDS011;58451;51.550;7.208;2024-02-26T04:17:29;4.80;;;1.30;;
70829;SDS011;58451;51.550;7.208;2024-02-26T04:19:01;5.30;;;1.20;;
70829;SDS011;58451;51.550;7.208;2024-02-26T04:20:33;4.10;;;1.10;;
70829;SDS011;58451;51.550;7.208;2024-02-26T04:22:05;6.00;;;1.50;;
70829;SDS011;58451;51.550;7.208;2024-02-26T04:23:37;4.60;;;1.20;;
70829;SDS011;58451;51.550;7.208;2024-02-26T04:25:09;4.50;;;1.30;;
70829;SDS011;58451;51.550;7.208;2024-02-26T04:26:41;5.50;;;1.00;;
70829;SDS011;58451;51.550;7.208;2024-02-26T04:28:13;9.00;;;1.40;;
70829;SDS011;58451;51.550;7.208;2024-02-26T04:29:45;4.60;;;1.30;;
70829;SDS011;58451;51.550;7.208;2024-02-26T04:31:17;3.60;;;1.20;;
70829;SDS011;58451;51.550;7.208;2024-02-26T04:32:49;4.70;;;1.40;;
70829;SDS011;58451;51.550;7.208;2024-02-26T04:34:21;5.40;;;1.80;;
70829;SDS011;58451;51.550;7.208;2024-02-26T04:35:53;4.70;;;1.40;;
70829;SDS011;58451;51.550;7.208;2024-02-26T04:37:25;4.80;;;1.30;;
70829;SDS011;58451;51.550;7.208;2024-02-26T04:39:02;4.30;;;1.10;;
70829;SDS011;58451;51.550;7.208;2024-02-26T04:40:34;4.30;;;1.50;;
70829;SDS011;58451;51.550;7.208;2024-02-26T04:42:06;4.30;;;1.20;;
70829;SDS011;58451;51.550;7.208;2024-02-26T04:43:38;3.70;;;1.20;;
70829;SDS011;58451;51.550;7.208;2024-02-26T04:45:13;3.00;;;1.20;;
70829;SDS011;58451;51.550;7.208;2024-02-26T04:46:45;4.30;;;1.40;;
70829;SDS011;58451;51.550;7.208;2024-02-26T04:48:17;3.40;;;1.30;;
70829;SDS011;58451;51.550;7.208;2024-02-26T04:49:50;6.10;;;1.50;;
70829;SDS011;58451;51.550;7.208;2024-02-26T04:51:22;3.50;;;1.10;;
70829;SDS011;58451;51.550;7.208;2024-02-26T04:52:54;2.90;;;1.00;;
70829;SDS011;58451;51.550;7.208;2024-02-26T04:54:26;3.50;;;1.20;;
70829;SDS011;58451;51.550;7.208;2024-02-26T04:55:58;5.30;;;1.20;;
70829;SDS011;58451;51.550;7.208;2024-02-26T04:57:30;4.90;;;1.20;;
70829;SDS011;58451;51.550;7.208;2024-02-26T04:59:02;4.90;;;1.40;;
70829;SDS011;58451;51.550;7.208;2024-02-26T05:00:34;4.70;;;1.20;;
70829;SDS011;58451;51.550;7.208;2024-02-26T05:02:05;5.10;;;1.30;;
70829;SDS011;58451;51.550;7.208;2024-02-26T05:03:38;4.80;;;1.30;;
70829;SDS011;58451;51.550;7.208;2024-02-26T05:05:10;5.20;;;1.40;;
70829;SDS011;58451;51.550;7.208;2024-02-26T05:06:44;3.20;;;1.10;;
70829;SDS011;58451;51.550;7.208;2024-02-26T05:08:16;5.70;;;1.10;;
70829;SDS011;58451;51.550;7.208;2024-02-26T05:09:48;4.20;;;1.10;;
70829;SDS011;58451;51.550;7.208;2024-02-26T05:11:21;4.00;;;1.40;;
70829;SDS011;58451;51.550;7.208;2024-02-26T05:12:53;2.70;;;0.80;;
70829;SDS011;58451;51.550;7.208;2024-02-26T05:14:25;4.10;;;0.80;;
70829;SDS011;58451;51.550;7.208;2024-02-26T05:15:57;3.80;;;1.10;;
70829;SDS011;58451;51.550;7.208;2024-02-26T05:17:29;3.70;;;1.20;;
70829;SDS011;58451;51.550;7.208;2024-02-26T05:19:01;4.10;;;1.40;;
70829;SDS011;58451;51.550;7.208;2024-02-26T05:20:33;5.50;;;1.30;;
70829;SDS011;58451;51.550;7.208;2024-02-26T05:22:07;6.70;;;1.20;;
70829;SDS011;58451;51.550;7.208;2024-02-26T05:23:39;5.00;;;1.40;;
70829;SDS011;58451;51.550;7.208;2024-02-26T05:25:11;4.40;;;1.20;;
70829;SDS011;58451;51.550;7.208;2024-02-26T05:26:45;4.70;;;1.40;;
70829;SDS011;58451;51.550;7.208;2024-02-26T05:28:17;4.20;;;1.30;;
70829;SDS011;58451;51.550;7.208;2024-02-26T05:29:52;4.30;;;1.20;;
70829;SDS011;58451;51.550;7.208;2024-02-26T05:31:26;4.50;;;1.30;;
70829;SDS011;58451;51.550;7.208;2024-02-26T05:33:00;3.80;;;1.30;;
70829;SDS011;58451;51.550;7.208;2024-02-26T05:34:32;4.80;;;1.40;;
70829;SDS011;58451;51.550;7.208;2024-02-26T05:36:05;5.30;;;1.10;;
70829;SDS011;58451;51.550;7.208;2024-02-26T05:37:38;3.70;;;1.40;;
70829;SDS011;58451;51.550;7.208;2024-02-26T05:39:10;6.30;;;1.60;;
70829;SDS011;58451;51.550;7.208;2024-02-26T05:40:48;4.50;;;1.60;;
70829;SDS011;58451;51.550;7.208;2024-02-26T05:42:23;5.00;;;1.80;;
70829;SDS011;58451;51.550;7.208;2024-02-26T05:43:55;7.70;;;2.00;;
70829;SDS011;58451;51.550;7.208;2024-02-26T05:45:27;5.00;;;1.70;;
70829;SDS011;58451;51.550;7.208;2024-02-26T05:46:59;5.50;;;1.40;;
70829;SDS011;58451;51.550;7.208;2024-02-26T05:48:33;6.20;;;1.90;;
70829;SDS011;58451;51.550;7.208;2024-02-26T05:50:05;8.10;;;1.90;;
70829;SDS011;58451;51.550;7.208;2024-02-26T05:51:37;4.30;;;1.60;;
70829;SDS011;58451;51.550;7.208;2024-02-26T05:53:09;5.40;;;1.80;;
70829;SDS011;58451;51.550;7.208;2024-02-26T05:54:42;6.90;;;2.00;;
70829;SDS011;58451;51.550;7.208;2024-02-26T05:56:14;5.10;;;1.80;;
70829;SDS011;58451;51.550;7.208;2024-02-26T05:57:45;6.10;;;2.00;;
70829;SDS011;58451;51.550;7.208;2024-02-26T05:59:17;6.40;;;1.90;;
70829;SDS011;58451;51.550;7.208;2024-02-26T06:00:49;4.30;;;1.30;;
70829;SDS011;58451;51.550;7.208;2024-02-26T06:02:21;4.80;;;1.20;;
70829;SDS011;58451;51.550;7.208;2024-02-26T06:03:53;6.90;;;2.10;;
70829;SDS011;58451;51.550;7.208;2024-02-26T06:05:25;5.20;;;1.70;;
70829;SDS011;58451;51.550;7.208;2024-02-26T06:06:58;6.90;;;1.90;;
70829;SDS011;58451;51.550;7.208;2024-02-26T06:08:30;5.90;;;1.90;;
70829;SDS011;58451;51.550;7.208;2024-02-26T06:10:03;4.90;;;1.70;;
70829;SDS011;58451;51.550;7.208;2024-02-26T06:11:37;6.10;;;1.90;;
70829;SDS011;58451;51.550;7.208;2024-02-26T06:13:09;7.20;;;1.80;;
70829;SDS011;58451;51.550;7.208;2024-02-26T06:14:42;4.90;;;1.50;;
70829;SDS011;58451;51.550;7.208;2024-02-26T06:16:15;5.60;;;1.90;;
70829;SDS011;58451;51.550;7.208;2024-02-26T06:17:46;7.70;;;1.80;;
70829;SDS011;58451;51.550;7.208;2024-02-26T06:19:19;7.20;;;1.80;;
70829;SDS011;58451;51.550;7.208;2024-02-26T06:20:51;5.90;;;1.80;;
70829;SDS011;58451;51.550;7.208;2024-02-26T06:22:22;5.80;;;2.10;;
70829;SDS011;58451;51.550;7.208;2024-02-26T06:23:54;5.70;;;1.60;;
70829;SDS011;58451;51.550;7.208;2024-02-26T06:25:26;7.40;;;1.50;;
70829;SDS011;58451;51.550;7.208;2024-02-26T06:26:58;7.20;;;1.80;;
70829;SDS011;58451;51.550;7.208;2024-02-26T06:28:30;8.20;;;1.70;;
70829;SDS011;58451;51.550;7.208;2024-02-26T06:30:04;5.10;;;1.60;;
70829;SDS011;58451;51.550;7.208;2024-02-26T06:31:37;7.20;;;1.70;;
70829;SDS011;58451;51.550;7.208;2024-02-26T06:33:09;4.30;;;1.30;;
70829;SDS011;58451;51.550;7.208;2024-02-26T06:34:42;5.90;;;1.60;;
70829;SDS011;58451;51.550;7.208;2024-02-26T06:36:18;4.90;;;1.50;;
70829;SDS011;58451;51.550;7.208;2024-02-26T06:37:50;5.30;;;1.30;;
70829;SDS011;58451;51.550;7.208;2024-02-26T06:39:24;7.00;;;1.50;;
70829;SDS011;58451;51.550;7.208;2024-02-26T06:40:56;8.00;;;2.00;;
70829;SDS011;58451;51.550;7.208;2024-02-26T06:42:28;7.50;;;1.90;;
70829;SDS011;58451;51.550;7.208;2024-02-26T06:44:01;5.50;;;2.00;;
70829;SDS011;58451;51.550;7.208;2024-02-26T06:45:32;8.00;;;2.10;;
70829;SDS011;58451;51.550;7.208;2024-02-26T06:47:05;6.60;;;2.10;;
70829;SDS011;58451;51.550;7.208;2024-02-26T06:48:36;7.30;;;2.40;;
70829;SDS011;58451;51.550;7.208;2024-02-26T06:50:11;8.10;;;2.10;;
70829;SDS011;58451;51.550;7.208;2024-02-26T06:51:44;6.80;;;2.20;;
70829;SDS011;58451;51.550;7.208;2024-02-26T06:53:15;6.70;;;2.20;;
70829;SDS011;58451;51.550;7.208;2024-02-26T06:54:47;7.50;;;2.20;;
70829;SDS011;58451;51.550;7.208;2024-02-26T06:56:22;8.60;;;2.10;;
70829;SDS011;58451;51.550;7.208;2024-02-26T06:57:54;6.30;;;2.20;;
70829;SDS011;58451;51.550;7.208;2024-02-26T06:59:26;6.20;;;1.80;;
70829;SDS011;58451;51.550;7.208;2024-02-26T07:00:58;5.90;;;2.10;;
70829;SDS011;58451;51.550;7.208;2024-02-26T07:02:34;6.20;;;2.00;;
70829;SDS011;58451;51.550;7.208;2024-02-26T07:04:10;6.20;;;2.10;;
70829;SDS011;58451;51.550;7.208;2024-02-26T07:05:42;7.60;;;2.10;;
70829;SDS011;58451;51.550;7.208;2024-02-26T07:07:17;6.00;;;2.00;;
70829;SDS011;58451;51.550;7.208;2024-02-26T07:08:50;7.30;;;1.80;;
70829;SDS011;58451;51.550;7.208;2024-02-26T07:10:22;8.40;;;2.30;;
70829;SDS011;58451;51.550;7.208;2024-02-26T07:11:54;6.00;;;2.10;;
70829;SDS011;58451;51.550;7.208;2024-02-26T07:13:30;5.80;;;2.00;;
70829;SDS011;58451;51.550;7.208;2024-02-26T07:15:02;6.50;;;2.20;;
70829;SDS011;58451;51.550;7.208;2024-02-26T07:16:34;7.30;;;2.30;;
70829;SDS011;58451;51.550;7.208;2024-02-26T07:18:06;7.80;;;2.40;;
70829;SDS011;58451;51.550;7.208;2024-02-26T07:19:39;10.30;;;2.30;;
70829;SDS011;58451;51.550;7.208;2024-02-26T07:21:12;7.30;;;2.20;;
70829;SDS011;58451;51.550;7.208;2024-02-26T07:22:44;7.70;;;2.40;;
70829;SDS011;58451;51.550;7.208;2024-02-26T07:24:16;7.40;;;2.30;;
70829;SDS011;58451;51.550;7.208;2024-02-26T07:25:48;8.60;;;2.30;;
70829;SDS011;58451;51.550;7.208;2024-02-26T07:27:22;6.20;;;2.30;;
70829;SDS011;58451;51.550;7.208;2024-02-26T07:28:54;8.00;;;2.30;;
70829;SDS011;58451;51.550;7.208;2024-02-26T07:30:26;7.20;;;2.20;;
70829;SDS011;58451;51.550;7.208;2024-02-26T07:31:58;6.30;;;2.10;;
70829;SDS011;58451;51.550;7.208;2024-02-26T07:33:30;6.90;;;2.20;;
70829;SDS011;58451;51.550;7.208;2024-02-26T07:35:02;7.00;;;2.40;;
70829;SDS011;58451;51.550;7.208;2024-02-26T07:36:34;8.20;;;2.30;;
70829;SDS011;58451;51.550;7.208;2024-02-26T07:38:06;6.60;;;1.90;;
70829;SDS011;58451;51.550;7.208;2024-02-26T07:39:50;5.80;;;1.90;;
70829;SDS011;58451;51.550;7.208;2024-02-26T07:41:22;4.90;;;1.50;;
70829;SDS011;58451;51.550;7.208;2024-02-26T07:42:54;7.80;;;2.00;;
70829;SDS011;58451;51.550;7.208;2024-02-26T07:44:25;6.30;;;2.30;;
70829;SDS011;58451;51.550;7.208;2024-02-26T07:45:57;5.60;;;1.80;;
70829;SDS011;58451;51.550;7.208;2024-02-26T07:47:29;6.50;;;2.20;;
70829;SDS011;58451;51.550;7.208;2024-02-26T07:49:02;5.90;;;2.00;;
70829;SDS011;58451;51.550;7.208;2024-02-26T07:50:34;7.20;;;2.40;;
70829;SDS011;58451;51.550;7.208;2024-02-26T07:52:06;8.80;;;2.40;;
70829;SDS011;58451;51.550;7.208;2024-02-26T07:53:38;7.20;;;2.50;;
70829;SDS011;58451;51.550;7.208;2024-02-26T07:55:10;7.60;;;2.20;;
70829;SDS011;58451;51.550;7.208;2024-02-26T07:56:42;7.80;;;2.00;;
70829;SDS011;58451;51.550;7.208;2024-02-26T07:58:14;5.90;;;1.80;;
70829;SDS011;58451;51.550;7.208;2024-02-26T07:59:46;6.60;;;1.90;;
70829;SDS011;58451;51.550;7.208;2024-02-26T08:01:22;8.50;;;2.20;;
70829;SDS011;58451;51.550;7.208;2024-02-26T08:02:55;6.90;;;2.10;;
70829;SDS011;58451;51.550;7.208;2024-02-26T08:04:27;6.40;;;2.10;;
70829;SDS011;58451;51.550;7.208;2024-02-26T08:05:59;8.20;;;2.40;;
70829;SDS011;58451;51.550;7.208;2024-02-26T08:07:31;6.00;;;1.90;;
70829;SDS011;58451;51.550;7.208;2024-02-26T08:09:03;6.60;;;1.80;;
70829;SDS011;58451;51.550;7.208;2024-02-26T08:10:36;8.00;;;2.10;;
70829;SDS011;58451;51.550;7.208;2024-02-26T08:12:08;5.10;;;1.90;;
70829;SDS011;58451;51.550;7.208;2024-02-26T08:13:40;6.30;;;2.20;;
70829;SDS011;58451;51.550;7.208;2024-02-26T08:15:12;6.80;;;2.10;;
70829;SDS011;58451;51.550;7.208;2024-02-26T08:16:44;6.00;;;1.70;;
70829;SDS011;58451;51.550;7.208;2024-02-26T08:18:16;5.40;;;1.80;;
70829;SDS011;58451;51.550;7.208;2024-02-26T08:19:48;5.30;;;2.00;;
70829;SDS011;58451;51.550;7.208;2024-02-26T08:21:20;7.70;;;1.80;;
70829;SDS011;58451;51.550;7.208;2024-02-26T08:22:52;8.30;;;2.40;;
70829;SDS011;58451;51.550;7.208;2024-02-26T08:24:24;6.80;;;2.10;;
70829;SDS011;58451;51.550;7.208;2024-02-26T08:25:56;5.90;;;1.70;;
70829;SDS011;58451;51.550;7.208;2024-02-26T08:27:28;6.30;;;1.80;;
70829;SDS011;58451;51.550;7.208;2024-02-26T08:29:00;6.30;;;1.80;;
70829;SDS011;58451;51.550;7.208;2024-02-26T08:30:32;7.10;;;2.00;;
70829;SDS011;58451;51.550;7.208;2024-02-26T08:32:04;5.20;;;1.60;;
70829;SDS011;58451;51.550;7.208;2024-02-26T08:33:37;6.10;;;1.80;;
70829;SDS011;58451;51.550;7.208;2024-02-26T08:35:09;6.90;;;2.10;;
70829;SDS011;58451;51.550;7.208;2024-02-26T08:36:41;6.90;;;1.80;;
70829;SDS011;58451;51.550;7.208;2024-02-26T08:38:14;7.10;;;2.20;;
70829;SDS011;58451;51.550;7.208;2024-02-26T08:39:47;7.50;;;1.90;;
70829;SDS011;58451;51.550;7.208;2024-02-26T08:41:19;6.90;;;2.10;;
70829;SDS011;58451;51.550;7.208;2024-02-26T08:42:51;6.00;;;1.80;;
70829;SDS011;58451;51.550;7.208;2024-02-26T08:44:23;6.00;;;2.00;;
70829;SDS011;58451;51.550;7.208;2024-02-26T08:45:55;5.90;;;1.80;;
70829;SDS011;58451;51.550;7.208;2024-02-26T08:47:27;6.10;;;1.80;;
70829;SDS011;58451;51.550;7.208;2024-02-26T08:49:00;5.60;;;2.00;;
70829;SDS011;58451;51.550;7.208;2024-02-26T08:50:32;6.70;;;2.00;;
70829;SDS011;58451;51.550;7.208;2024-02-26T08:52:04;7.60;;;2.20;;
70829;SDS011;58451;51.550;7.208;2024-02-26T08:53:36;7.50;;;2.00;;
70829;SDS011;58451;51.550;7.208;2024-02-26T08:55:14;7.10;;;2.10;;
70829;SDS011;58451;51.550;7.208;2024-02-26T08:56:46;5.30;;;2.00;;
70829;SDS011;58451;51.550;7.208;2024-02-26T08:58:18;5.90;;;2.10;;
70829;SDS011;58451;51.550;7.208;2024-02-26T08:59:50;6.20;;;2.00;;
70829;SDS011;58451;51.550;7.208;2024-02-26T09:01:22;6.70;;;2.10;;
70829;SDS011;58451;51.550;7.208;2024-02-26T09:02:55;4.70;;;1.70;;
70829;SDS011;58451;51.550;7.208;2024-02-26T09:04:27;4.90;;;1.60;;
70829;SDS011;58451;51.550;7.208;2024-02-26T09:05:59;8.20;;;1.90;;
70829;SDS011;58451;51.550;7.208;2024-02-26T09:07:31;7.30;;;1.70;;
70829;SDS011;58451;51.550;7.208;2024-02-26T09:09:03;6.00;;;1.80;;
70829;SDS011;58451;51.550;7.208;2024-02-26T09:10:35;4.40;;;1.60;;
70829;SDS011;58451;51.550;7.208;2024-02-26T09:12:08;6.20;;;2.00;;
70829;SDS011;58451;51.550;7.208;2024-02-26T09:19:02;5.90;;;2.20;;
70829;SDS011;58451;51.550;7.208;2024-02-26T09:20:34;5.20;;;1.90;;
70829;SDS011;58451;51.550;7.208;2024-02-26T09:22:07;4.70;;;1.50;;